Time;durP1;ratioP1;P1;durP2;ratioP2;P2;SDS_P1;SDS_P2;PMS_P1;PMS_P2;Temp;Humidity;BMP_temperature;BMP_pressure;BME280_temperature;BME280_humidity;BME280_pressure;Samples;Min_cycle;Max_cycle;Signal;HPM_P1;HPM_P2
2021/03/07 00:00:25;;;;;;;9.10;8.20;;;2.80;58.30;;;;;;4985709;28;20246;-92
2021/03/07 00:02:52;;;;;;;9.30;8.40;;;2.80;58.30;;;;;;4986092;28;20187;-91
2021/03/07 00:05:19;;;;;;;9.10;8.20;;;2.90;58.60;;;;;;4987145;28;20179;-92
2021/03/07 00:07:45;;;;;;;9.07;8.17;;;3.00;57.60;;;;;;4986881;28;20217;-92
2021/03/07 00:10:14;;;;;;;8.43;7.63;;;3.00;57.20;;;;;;4985258;28;20269;-92
2021/03/07 00:12:39;;;;;;;9.70;8.20;;;3.00;55.90;;;;;;4987044;28;20274;-91
2021/03/07 00:15:08;;;;;;;8.40;7.60;;;2.90;56.20;;;;;;4987290;28;20238;-92
2021/03/07 00:17:33;;;;;;;9.47;7.80;;;2.80;55.70;;;;;;4987143;28;20184;-91
2021/03/07 00:19:59;;;;;;;8.43;7.63;;;2.70;55.70;;;;;;4986931;28;20203;-92
2021/03/07 00:22:25;;;;;;;11.67;8.80;;;2.70;56.80;;;;;;4986101;28;20269;-92
2021/03/07 00:24:52;;;;;;;9.40;8.50;;;2.70;56.00;;;;;;5001835;28;20222;-92
2021/03/07 00:27:18;;;;;;;9.50;7.53;;;2.70;56.70;;;;;;4987142;28;20186;-91
2021/03/07 00:29:44;;;;;;;9.20;8.30;;;2.70;55.30;;;;;;4987236;28;20199;-92
2021/03/07 00:32:10;;;;;;;8.70;7.90;;;2.70;57.00;;;;;;5002417;28;20217;-92
2021/03/07 00:34:36;;;;;;;7.97;7.17;;;2.80;56.40;;;;;;5001698;28;20211;-92
2021/03/07 00:37:02;;;;;;;8.80;7.90;;;2.80;55.80;;;;;;4985113;28;20213;-92
2021/03/07 00:39:30;;;;;;;8.43;7.57;;;2.80;55.50;;;;;;5000925;28;20187;-93
2021/03/07 00:42:00;;;;;;;8.83;7.87;;;2.80;55.70;;;;;;4985992;28;20202;-92
2021/03/07 00:44:26;;;;;;;9.13;8.23;;;2.80;55.50;;;;;;5001353;28;20206;-92
2021/03/07 00:46:52;;;;;;;9.67;8.13;;;2.80;55.50;;;;;;4985933;28;20197;-92
2021/03/07 00:49:24;;;;;;;8.57;7.73;;;2.70;55.80;;;;;;4985421;28;20191;-91
2021/03/07 00:51:50;;;;;;;10.40;8.27;;;2.70;55.60;;;;;;4985313;28;20198;-92
2021/03/07 00:54:16;;;;;;;9.10;7.53;;;2.70;55.20;;;;;;4985563;28;20214;-92
2021/03/07 00:56:41;;;;;;;8.17;7.37;;;2.80;54.80;;;;;;4984588;28;20627;-92
2021/03/07 00:59:08;;;;;;;8.97;8.17;;;2.80;54.90;;;;;;4985546;28;20650;-91
2021/03/07 01:01:34;;;;;;;9.43;7.80;;;2.80;56.20;;;;;;4986537;28;20195;-92
2021/03/07 01:03:59;;;;;;;10.27;8.33;;;2.70;55.80;;;;;;4990477;28;20225;-92
2021/03/07 01:06:26;;;;;;;9.30;7.57;;;2.70;55.40;;;;;;5003787;28;20207;-93
2021/03/07 01:08:51;;;;;;;9.87;8.27;;;2.70;55.50;;;;;;4985403;28;20193;-92
2021/03/07 01:11:17;;;;;;;9.37;7.97;;;2.60;55.60;;;;;;4986592;28;20211;-92
2021/03/07 01:13:43;;;;;;;8.43;7.60;;;2.50;56.50;;;;;;5001801;28;20282;-92
2021/03/07 01:16:09;;;;;;;8.43;7.70;;;2.60;56.60;;;;;;4985441;28;20182;-91
2021/03/07 01:18:34;;;;;;;10.23;8.17;;;2.40;56.20;;;;;;4985448;28;20183;-92
2021/03/07 01:21:00;;;;;;;8.50;7.67;;;2.10;57.10;;;;;;5002347;28;20202;-91
2021/03/07 01:23:28;;;;;;;8.63;7.73;;;1.90;58.40;;;;;;4985890;28;20222;-92
2021/03/07 01:25:54;;;;;;;9.17;7.53;;;1.80;58.10;;;;;;4984703;28;20183;-91
2021/03/07 01:28:19;;;;;;;10.47;8.43;;;1.70;58.70;;;;;;4985435;28;20249;-92
2021/03/07 01:30:45;;;;;;;10.13;8.40;;;1.70;59.10;;;;;;4984982;28;20210;-91
2021/03/07 01:33:11;;;;;;;8.03;7.20;;;1.80;59.00;;;;;;4984797;28;20191;-91
2021/03/07 01:35:37;;;;;;;9.73;8.47;;;1.80;57.70;;;;;;4986673;28;20175;-91
2021/03/07 01:38:03;;;;;;;8.33;7.20;;;1.80;57.80;;;;;;4985692;28;20241;-91
2021/03/07 01:40:43;;;;;;;8.97;7.50;;;1.90;58.70;;;;;;4986955;28;20204;-92
2021/03/07 01:43:10;;;;;;;9.10;7.70;;;2.00;57.40;;;;;;4999215;28;20222;-92
2021/03/07 01:45:36;;;;;;;8.90;7.37;;;2.00;57.90;;;;;;5001286;28;20186;-92
2021/03/07 01:48:05;;;;;;;9.03;7.70;;;2.10;57.00;;;;;;4988884;28;20187;-92
2021/03/07 01:50:33;;;;;;;7.60;6.80;;;2.10;58.20;;;;;;4988225;28;20206;-92
2021/03/07 01:52:59;;;;;;;10.20;7.93;;;2.20;58.90;;;;;;4972782;28;20255;-92
2021/03/07 01:55:27;;;;;;;8.47;7.27;;;2.50;59.40;;;;;;5004181;28;20231;-92
2021/03/07 01:57:58;;;;;;;8.47;7.60;;;2.60;58.80;;;;;;5004837;28;20213;-92
2021/03/07 02:00:24;;;;;;;9.37;7.20;;;2.70;57.00;;;;;;4988378;28;20223;-92
2021/03/07 02:02:51;;;;;;;9.03;7.17;;;2.70;57.30;;;;;;4988885;28;20219;-92
2021/03/07 02:05:19;;;;;;;8.57;7.70;;;2.90;57.30;;;;;;4988145;28;20195;-91
2021/03/07 02:07:46;;;;;;;8.70;7.30;;;3.00;57.10;;;;;;5004336;28;20187;-91
2021/03/07 02:10:20;;;;;;;7.27;6.60;;;3.10;57.00;;;;;;5003890;28;20206;-92
2021/03/07 02:12:48;;;;;;;7.70;6.90;;;3.10;56.70;;;;;;5004765;28;20180;-91
2021/03/07 02:15:15;;;;;;;6.37;5.77;;;3.20;56.60;;;;;;4987979;28;20219;-93
2021/03/07 02:17:42;;;;;;;7.13;6.43;;;3.20;56.40;;;;;;5004112;28;20251;-92
2021/03/07 02:20:09;;;;;;;6.63;5.93;;;3.30;56.30;;;;;;4987514;28;20203;-92
2021/03/07 02:22:38;;;;;;;6.30;5.70;;;3.30;55.00;;;;;;4988144;28;20186;-92
2021/03/07 02:25:10;;;;;;;7.00;6.33;;;3.30;55.40;;;;;;4988527;28;20192;-92
2021/03/07 02:27:36;;;;;;;6.20;5.60;;;3.40;55.30;;;;;;5005448;28;20191;-91
2021/03/07 02:30:08;;;;;;;7.07;6.30;;;3.40;55.70;;;;;;4994717;28;20203;-92
2021/03/07 02:32:43;;;;;;;6.67;6.07;;;3.40;55.00;;;;;;4989143;28;20183;-92
2021/03/07 02:35:17;;;;;;;6.33;5.73;;;3.30;53.30;;;;;;4989542;28;20194;-91
2021/03/07 02:37:48;;;;;;;7.70;6.03;;;3.10;54.20;;;;;;4989151;28;20508;-92
2021/03/07 02:40:16;;;;;;;7.67;5.87;;;3.10;55.70;;;;;;5003879;28;20203;-91
2021/03/07 02:42:44;;;;;;;6.93;6.23;;;3.10;55.90;;;;;;5003618;28;20183;-91
2021/03/07 02:45:13;;;;;;;7.03;6.30;;;3.00;55.70;;;;;;4987462;28;20191;-92
2021/03/07 02:47:46;;;;;;;6.67;5.97;;;2.90;55.00;;;;;;4987517;28;20202;-91
2021/03/07 02:50:14;;;;;;;7.67;5.87;;;2.70;55.40;;;;;;4987700;28;20217;-92
2021/03/07 02:52:45;;;;;;;6.90;5.90;;;2.60;56.10;;;;;;4987720;28;20194;-92
2021/03/07 02:55:12;;;;;;;6.70;6.00;;;2.50;57.20;;;;;;4987236;28;20254;-92
2021/03/07 02:57:41;;;;;;;6.93;5.90;;;2.40;57.20;;;;;;4986987;28;20191;-91
2021/03/07 03:00:08;;;;;;;6.00;5.40;;;2.30;56.90;;;;;;4989056;28;20215;-92
2021/03/07 03:02:38;;;;;;;7.77;5.80;;;2.30;57.10;;;;;;4987154;28;20187;-92
2021/03/07 03:05:06;;;;;;;8.10;6.00;;;2.20;56.80;;;;;;4987280;28;20210;-92
2021/03/07 03:07:34;;;;;;;6.40;5.80;;;2.20;57.20;;;;;;4987387;28;20198;-91
2021/03/07 03:10:03;;;;;;;7.20;5.83;;;2.20;56.40;;;;;;4987910;28;20234;-92
2021/03/07 03:12:33;;;;;;;7.43;5.90;;;2.10;57.10;;;;;;4987733;28;20191;-92
2021/03/07 03:15:00;;;;;;;5.90;5.30;;;2.20;58.90;;;;;;4986749;28;20214;-92
2021/03/07 03:17:26;;;;;;;7.33;5.63;;;2.30;58.10;;;;;;4987811;28;20194;-91
2021/03/07 03:19:55;;;;;;;7.60;5.20;;;2.40;57.80;;;;;;4983681;28;20211;-92
2021/03/07 03:22:21;;;;;;;5.97;5.33;;;2.50;57.30;;;;;;4971866;28;20444;-91
2021/03/07 03:24:48;;;;;;;5.80;5.30;;;2.40;57.10;;;;;;4982961;28;20192;-92
2021/03/07 03:27:14;;;;;;;9.50;5.70;;;2.40;57.60;;;;;;4983140;28;20196;-92
2021/03/07 03:29:41;;;;;;;6.43;5.73;;;2.30;57.20;;;;;;4968868;28;20270;-92
2021/03/07 03:32:07;;;;;;;6.83;5.63;;;2.30;57.20;;;;;;4980540;28;20188;-92
2021/03/07 03:34:34;;;;;;;6.00;5.50;;;2.10;57.20;;;;;;4980106;28;20211;-92
2021/03/07 03:36:59;;;;;;;6.27;5.67;;;2.00;58.20;;;;;;4980918;28;20183;-92
2021/03/07 03:39:27;;;;;;;7.37;5.80;;;2.00;58.60;;;;;;4965397;28;20349;-92
2021/03/07 03:41:59;;;;;;;6.23;5.57;;;1.90;58.80;;;;;;4964869;28;20183;-91
2021/03/07 03:44:29;;;;;;;6.83;5.80;;;1.80;59.10;;;;;;4980598;28;20202;-91
2021/03/07 03:46:57;;;;;;;7.40;5.93;;;1.70;59.00;;;;;;4933213;29;20251;-91
2021/03/07 03:49:33;;;;;;;6.33;5.80;;;1.70;60.00;;;;;;4964319;28;20179;-92
2021/03/07 03:52:05;;;;;;;6.50;5.90;;;1.60;60.30;;;;;;4958609;28;20211;-91
2021/03/07 03:54:38;;;;;;;6.07;5.43;;;1.60;60.70;;;;;;4986505;28;20207;-91
2021/03/07 03:57:05;;;;;;;7.80;6.27;;;1.80;61.10;;;;;;4967196;28;20180;-91
2021/03/07 03:59:32;;;;;;;6.40;5.80;;;1.60;59.90;;;;;;4965421;28;20281;-92
2021/03/07 04:01:59;;;;;;;6.70;6.00;;;1.50;61.40;;;;;;4980768;28;20180;-91
2021/03/07 04:04:27;;;;;;;6.63;5.97;;;1.60;63.20;;;;;;4981051;28;20188;-92
2021/03/07 04:06:54;;;;;;;6.33;5.73;;;1.70;63.20;;;;;;4965517;28;20222;-91
2021/03/07 04:09:20;;;;;;;7.17;6.47;;;1.80;62.20;;;;;;4980039;28;20246;-93
2021/03/07 04:11:46;;;;;;;6.53;5.63;;;1.90;61.40;;;;;;4981211;28;20188;-92
2021/03/07 04:14:14;;;;;;;6.00;5.50;;;1.90;61.50;;;;;;4965710;28;20280;-92
2021/03/07 04:16:40;;;;;;;5.77;5.27;;;1.90;61.10;;;;;;4979859;28;20548;-92
2021/03/07 04:19:07;;;;;;;5.77;5.27;;;2.00;62.20;;;;;;4980957;28;20180;-92
2021/03/07 04:21:33;;;;;;;5.67;4.87;;;2.10;62.00;;;;;;4980699;28;20619;-92
2021/03/07 04:23:59;;;;;;;6.40;5.80;;;2.10;61.40;;;;;;4990386;28;20222;-92
2021/03/07 04:26:25;;;;;;;6.10;5.50;;;2.00;59.00;;;;;;4984096;28;20187;-92
2021/03/07 04:28:51;;;;;;;6.03;5.43;;;1.90;59.20;;;;;;4986395;28;20210;-92
2021/03/07 04:31:18;;;;;;;6.00;5.40;;;1.90;59.60;;;;;;4987619;28;20258;-92
2021/03/07 04:33:44;;;;;;;6.33;5.73;;;2.00;59.60;;;;;;4985818;28;20210;-92
2021/03/07 04:36:10;;;;;;;6.20;5.60;;;1.90;58.50;;;;;;4987623;28;20190;-92
2021/03/07 04:38:36;;;;;;;6.97;5.97;;;1.90;60.70;;;;;;4986248;28;20253;-93
2021/03/07 04:41:02;;;;;;;7.23;5.90;;;2.00;61.30;;;;;;4984603;28;20245;-92
2021/03/07 04:43:44;;;;;;;7.27;5.90;;;1.90;61.90;;;;;;4984325;28;20251;-92
2021/03/07 04:46:10;;;;;;;6.07;5.40;;;1.90;62.20;;;;;;4985850;28;20633;-92
2021/03/07 04:48:36;;;;;;;6.57;5.87;;;2.00;60.20;;;;;;4984099;28;20204;-92
2021/03/07 04:51:01;;;;;;;6.37;5.53;;;2.00;60.10;;;;;;5000599;28;20207;-93
2021/03/07 04:53:27;;;;;;;6.83;5.60;;;2.00;61.00;;;;;;4984791;28;20191;-92
2021/03/07 04:55:53;;;;;;;7.40;5.83;;;2.00;61.40;;;;;;4992277;28;20191;-92
2021/03/07 04:58:18;;;;;;;6.43;5.83;;;2.00;58.80;;;;;;4984320;28;20241;-93
2021/03/07 05:00:44;;;;;;;7.63;6.83;;;2.00;58.90;;;;;;4968097;28;20928;-93
2021/03/07 05:03:10;;;;;;;7.40;5.73;;;1.90;60.00;;;;;;4984258;28;20208;-93
2021/03/07 05:05:36;;;;;;;6.27;5.67;;;1.80;60.70;;;;;;4984024;28;20191;-93
2021/03/07 05:08:01;;;;;;;5.83;5.33;;;1.80;61.80;;;;;;5000658;28;20198;-93
2021/03/07 05:10:27;;;;;;;6.20;5.50;;;1.80;61.30;;;;;;4984104;28;20206;-92
2021/03/07 05:12:53;;;;;;;7.00;6.10;;;1.80;61.60;;;;;;4985756;28;20190;-93
2021/03/07 05:15:18;;;;;;;6.37;5.77;;;1.70;60.30;;;;;;4983808;28;20211;-92
2021/03/07 05:17:44;;;;;;;7.97;6.30;;;1.80;62.10;;;;;;4986805;28;20194;-93
2021/03/07 05:20:10;;;;;;;6.17;5.67;;;1.90;62.50;;;;;;4995150;28;20190;-92
2021/03/07 05:22:36;;;;;;;6.90;6.13;;;1.70;61.60;;;;;;4989136;28;20197;-93
2021/03/07 05:25:02;;;;;;;6.40;5.80;;;1.60;61.90;;;;;;5005010;28;20187;-93
2021/03/07 05:27:28;;;;;;;5.97;5.43;;;1.30;63.20;;;;;;4990672;28;20257;-93
2021/03/07 05:29:53;;;;;;;5.57;5.07;;;1.30;64.30;;;;;;4989791;28;20202;-93
2021/03/07 05:32:19;;;;;;;6.80;5.80;;;1.40;64.80;;;;;;5004426;28;20261;-93
2021/03/07 05:34:45;;;;;;;6.23;5.33;;;1.50;64.50;;;;;;4989229;28;20215;-93
2021/03/07 05:37:11;;;;;;;6.57;5.63;;;1.50;64.30;;;;;;4988981;28;20695;-92
2021/03/07 05:39:36;;;;;;;5.60;5.10;;;1.60;63.80;;;;;;4972146;28;20207;-93
2021/03/07 05:42:02;;;;;;;6.07;5.43;;;1.60;63.70;;;;;;4972573;28;20194;-92
2021/03/07 05:44:28;;;;;;;7.13;5.73;;;1.60;63.40;;;;;;4989027;28;20187;-92
2021/03/07 05:46:54;;;;;;;6.13;5.57;;;1.70;63.10;;;;;;4987650;28;20278;-92
2021/03/07 05:49:20;;;;;;;5.93;5.33;;;1.70;62.90;;;;;;4988045;28;20210;-93
2021/03/07 05:51:46;;;;;;;7.03;5.50;;;1.60;62.60;;;;;;5005302;28;20744;-92
2021/03/07 05:54:13;;;;;;;6.67;5.93;;;1.70;63.00;;;;;;5004541;28;20218;-93
2021/03/07 05:56:39;;;;;;;6.80;5.47;;;1.70;63.10;;;;;;4989851;28;20179;-93
2021/03/07 05:59:06;;;;;;;5.53;5.03;;;1.70;63.80;;;;;;4988752;28;20650;-93
2021/03/07 06:01:33;;;;;;;6.67;5.97;;;1.70;63.60;;;;;;4987032;28;20214;-93
2021/03/07 06:04:04;;;;;;;6.97;5.90;;;1.80;63.20;;;;;;5004968;28;20174;-93
2021/03/07 06:06:33;;;;;;;6.47;5.57;;;1.70;63.50;;;;;;4990638;28;20175;-92
2021/03/07 06:09:29;;;;;;;6.50;5.90;;;1.70;63.60;;;;;;4989541;28;20179;-92
2021/03/07 06:11:57;;;;;;;7.03;6.33;;;1.70;63.30;;;;;;5000315;28;20199;-92
2021/03/07 06:14:29;;;;;;;6.23;5.63;;;1.70;63.40;;;;;;4987731;28;20217;-93
2021/03/07 06:17:09;;;;;;;6.50;5.90;;;1.70;63.40;;;;;;5004027;28;20171;-92
2021/03/07 06:20:01;;;;;;;56.23;37.67;;;1.40;63.50;;;;;;4985846;28;20186;-93
2021/03/07 06:22:28;;;;;;;18.83;14.37;;;1.10;65.10;;;;;;5006127;28;20206;-93
2021/03/07 06:24:58;;;;;;;10.47;8.93;;;1.00;66.50;;;;;;4989704;28;20202;-92
2021/03/07 06:27:24;;;;;;;9.77;8.10;;;1.00;66.70;;;;;;4990113;28;20187;-93
2021/03/07 06:30:07;;;;;;;8.63;6.83;;;1.10;67.10;;;;;;5002930;28;20320;-92
2021/03/07 06:32:42;;;;;;;7.77;7.03;;;1.20;66.10;;;;;;4985543;28;20202;-93
2021/03/07 06:35:10;;;;;;;8.27;7.37;;;1.30;65.90;;;;;;5002973;28;20237;-92
2021/03/07 06:38:07;;;;;;;9.73;8.00;;;1.30;64.90;;;;;;4985691;28;20703;-92
2021/03/07 06:40:41;;;;;;;11.17;8.37;;;1.20;65.70;;;;;;4968238;29;20235;-93
2021/03/07 06:43:20;;;;;;;9.00;7.90;;;1.30;64.70;;;;;;4993452;28;20214;-92
2021/03/07 06:45:46;;;;;;;7.30;6.60;;;1.40;65.60;;;;;;4997045;28;20211;-93
2021/03/07 06:48:12;;;;;;;9.47;7.87;;;1.50;65.00;;;;;;4987488;28;20198;-93
2021/03/07 06:50:55;;;;;;;8.87;7.97;;;1.50;64.60;;;;;;4988035;28;20238;-91
2021/03/07 06:53:40;;;;;;;8.37;7.47;;;1.60;64.40;;;;;;5000091;28;20191;-93
2021/03/07 06:56:06;;;;;;;7.80;7.00;;;1.70;64.70;;;;;;4981798;28;20205;-92
2021/03/07 06:58:32;;;;;;;7.90;7.10;;;1.70;64.30;;;;;;4983348;28;20284;-92
2021/03/07 07:00:58;;;;;;;10.43;7.40;;;1.80;63.70;;;;;;4983785;28;20223;-92
2021/03/07 07:03:24;;;;;;;10.03;8.20;;;1.80;64.00;;;;;;4984597;28;20185;-92
2021/03/07 07:05:52;;;;;;;8.33;7.53;;;1.80;63.40;;;;;;5001516;28;20245;-93
2021/03/07 07:08:39;;;;;;;8.47;7.00;;;1.90;64.10;;;;;;4987688;28;20194;-93
2021/03/07 07:11:06;;;;;;;7.73;6.93;;;1.90;63.80;;;;;;4988305;28;20207;-93
2021/03/07 07:13:43;;;;;;;8.93;7.23;;;2.00;63.90;;;;;;5007097;28;20184;-93
2021/03/07 07:16:10;;;;;;;8.07;6.93;;;2.10;63.20;;;;;;4988485;28;20166;-93
2021/03/07 07:18:38;;;;;;;8.10;7.30;;;2.10;63.20;;;;;;4982630;28;20205;-93
2021/03/07 07:21:08;;;;;;;9.07;7.80;;;2.20;62.70;;;;;;4984881;28;20298;-93
2021/03/07 07:23:34;;;;;;;11.67;8.23;;;2.20;61.70;;;;;;4985365;28;20198;-93
2021/03/07 07:26:00;;;;;;;8.30;7.50;;;2.10;60.30;;;;;;4984524;28;20214;-92
2021/03/07 07:28:27;;;;;;;8.97;7.63;;;1.90;60.90;;;;;;4999883;28;20180;-93
2021/03/07 07:31:10;;;;;;;8.13;7.03;;;1.50;61.90;;;;;;4985782;28;20210;-92
2021/03/07 07:33:42;;;;;;;10.47;7.60;;;1.50;62.90;;;;;;5002243;28;20171;-92
2021/03/07 07:36:11;;;;;;;8.13;7.17;;;1.50;63.50;;;;;;4986556;28;20175;-93
2021/03/07 07:38:39;;;;;;;8.13;7.33;;;1.60;63.60;;;;;;4986647;28;20287;-94
2021/03/07 07:41:29;;;;;;;10.33;7.13;;;1.80;62.70;;;;;;4984773;28;20270;-93
2021/03/07 07:43:55;;;;;;;10.17;7.73;;;1.70;62.40;;;;;;4985961;28;20186;-92
2021/03/07 07:46:21;;;;;;;14.53;13.23;;;1.70;62.10;;;;;;4984274;28;20194;-93
2021/03/07 07:48:47;;;;;;;10.73;9.37;;;1.70;62.50;;;;;;4985972;28;20646;-93
2021/03/07 07:51:31;;;;;;;10.37;9.47;;;1.80;62.10;;;;;;4987215;28;20706;-92
2021/03/07 07:53:57;;;;;;;8.50;7.40;;;1.90;62.30;;;;;;4985707;28;20205;-92
2021/03/07 07:56:38;;;;;;;8.47;7.10;;;2.00;61.20;;;;;;4985737;28;20175;-92
2021/03/07 07:59:05;;;;;;;8.67;7.33;;;2.00;60.60;;;;;;5000497;28;20670;-92
2021/03/07 08:02:00;;;;;;;7.60;6.87;;;1.90;59.70;;;;;;4986025;28;20195;-93
2021/03/07 08:04:29;;;;;;;9.27;7.40;;;1.90;62.10;;;;;;4991111;28;20214;-92
2021/03/07 08:07:02;;;;;;;8.33;7.53;;;2.00;60.70;;;;;;4985884;28;20345;-93
2021/03/07 08:09:38;;;;;;;8.13;7.33;;;2.10;60.60;;;;;;4990883;28;20194;-92
2021/03/07 08:12:45;;;;;;;9.07;7.33;;;2.20;59.40;;;;;;4988896;28;20186;-93
2021/03/07 08:15:25;;;;;;;8.53;7.03;;;2.20;58.70;;;;;;4985120;28;20202;-93
2021/03/07 08:18:04;;;;;;;7.03;6.33;;;2.30;59.60;;;;;;4985253;28;20847;-93
2021/03/07 08:20:41;;;;;;;9.17;7.20;;;2.30;58.30;;;;;;4985482;28;20203;-93
2021/03/07 08:23:12;;;;;;;7.47;6.60;;;2.30;58.30;;;;;;4985675;28;20183;-92
2021/03/07 08:25:57;;;;;;;8.27;7.40;;;2.30;57.20;;;;;;4984258;28;20171;-92
2021/03/07 08:28:28;;;;;;;7.63;6.83;;;2.40;57.60;;;;;;4983192;28;20194;-92
2021/03/07 08:31:02;;;;;;;9.00;6.70;;;2.40;57.70;;;;;;4983891;28;20232;-92
2021/03/07 08:33:38;;;;;;;7.43;6.53;;;2.50;57.60;;;;;;4982952;28;20190;-91
2021/03/07 08:36:26;;;;;;;7.00;6.30;;;2.40;56.30;;;;;;4985322;28;20175;-93
2021/03/07 08:38:55;;;;;;;9.80;6.97;;;2.40;57.80;;;;;;4984584;28;20245;-92
2021/03/07 08:41:21;;;;;;;7.27;6.57;;;2.50;57.70;;;;;;4984852;28;20218;-92
2021/03/07 08:43:49;;;;;;;7.60;6.80;;;2.50;57.90;;;;;;4983496;28;20175;-92
2021/03/07 08:46:18;;;;;;;6.83;6.10;;;2.50;58.40;;;;;;4983783;28;20198;-92
2021/03/07 08:48:54;;;;;;;7.23;6.50;;;2.70;58.00;;;;;;4999576;28;20187;-91
2021/03/07 08:51:29;;;;;;;7.03;6.33;;;2.80;57.90;;;;;;4980018;28;20289;-93
2021/03/07 08:54:01;;;;;;;7.13;6.43;;;2.70;57.10;;;;;;4980795;28;20190;-91
2021/03/07 08:56:27;;;;;;;7.43;6.60;;;2.70;57.90;;;;;;4982034;28;20194;-91
2021/03/07 08:58:53;;;;;;;8.20;7.40;;;2.80;57.80;;;;;;4982007;28;20179;-92
2021/03/07 09:01:19;;;;;;;8.10;7.00;;;2.90;57.70;;;;;;4984167;28;20195;-91
2021/03/07 09:03:56;;;;;;;7.90;6.07;;;3.00;56.30;;;;;;4999620;28;20211;-91
2021/03/07 09:06:30;;;;;;;7.07;6.27;;;3.10;55.60;;;;;;4982101;28;20202;-92
2021/03/07 09:09:10;;;;;;;18.53;8.07;;;3.20;56.40;;;;;;4983613;28;20174;-92
2021/03/07 09:11:37;;;;;;;9.03;7.57;;;3.30;55.90;;;;;;4983430;28;20202;-91
2021/03/07 09:14:03;;;;;;;8.37;7.57;;;3.30;55.60;;;;;;4982131;28;20210;-92
2021/03/07 09:16:56;;;;;;;10.20;8.17;;;3.30;56.00;;;;;;4982303;28;20844;-92
2021/03/07 09:19:24;;;;;;;7.70;6.90;;;3.40;55.30;;;;;;4981348;28;20221;-91
2021/03/07 09:22:26;;;;;;;8.00;7.07;;;3.40;55.50;;;;;;4981844;28;20265;-91
2021/03/07 09:25:05;;;;;;;7.73;6.93;;;3.60;55.30;;;;;;4982528;28;20190;-91
2021/03/07 09:27:42;;;;;;;8.13;7.10;;;3.80;54.60;;;;;;4994597;28;20199;-91
2021/03/07 09:30:17;;;;;;;8.20;7.30;;;4.00;53.20;;;;;;4978322;28;20214;-91
2021/03/07 09:32:46;;;;;;;8.87;7.93;;;3.90;52.60;;;;;;4998420;28;20218;-92
2021/03/07 09:35:23;;;;;;;8.47;7.27;;;4.00;53.70;;;;;;4985446;28;20217;-91
2021/03/07 09:38:02;;;;;;;7.53;6.83;;;3.80;53.30;;;;;;4964776;28;20187;-91
2021/03/07 09:40:32;;;;;;;8.50;7.27;;;3.80;53.60;;;;;;4963470;28;20195;-91
2021/03/07 09:43:21;;;;;;;8.73;7.03;;;3.90;54.20;;;;;;4995834;28;20324;-91
2021/03/07 09:45:50;;;;;;;7.63;6.93;;;4.20;53.60;;;;;;4967563;28;20172;-91
2021/03/07 09:48:19;;;;;;;8.50;7.70;;;4.50;52.90;;;;;;4979451;28;20191;-91
2021/03/07 09:50:45;;;;;;;8.50;7.70;;;4.80;53.50;;;;;;4982468;28;20203;-91
2021/03/07 09:53:12;;;;;;;9.23;7.30;;;4.90;51.10;;;;;;4983258;28;20191;-92
2021/03/07 09:55:40;;;;;;;9.20;7.23;;;5.00;51.90;;;;;;4980464;28;20222;-90
2021/03/07 09:58:08;;;;;;;8.23;7.47;;;5.10;49.90;;;;;;4962618;28;20207;-91
2021/03/07 10:00:36;;;;;;;7.33;6.63;;;5.30;50.30;;;;;;4975263;28;20226;-91
2021/03/07 10:03:03;;;;;;;8.33;7.53;;;5.50;50.40;;;;;;4982384;28;20199;-91
2021/03/07 10:05:29;;;;;;;10.03;8.77;;;5.40;51.20;;;;;;4981628;28;20194;-90
2021/03/07 10:07:55;;;;;;;8.17;7.47;;;5.60;49.70;;;;;;4996677;28;20551;-91
2021/03/07 10:10:25;;;;;;;11.40;8.57;;;5.80;50.10;;;;;;4983671;28;20211;-91
2021/03/07 10:12:59;;;;;;;8.70;7.60;;;5.50;50.50;;;;;;4981459;28;20205;-91
2021/03/07 10:15:26;;;;;;;12.57;11.37;;;5.70;50.30;;;;;;4993466;28;20732;-90
2021/03/07 10:17:52;;;;;;;12.83;9.33;;;6.00;49.40;;;;;;4983615;28;20190;-91
2021/03/07 10:20:18;;;;;;;10.47;9.20;;;6.00;48.80;;;;;;4986650;28;20207;-91
2021/03/07 10:22:47;;;;;;;9.00;8.10;;;6.20;49.10;;;;;;4985884;28;20222;-92
2021/03/07 10:25:27;;;;;;;8.10;7.40;;;6.20;48.10;;;;;;4999792;28;20183;-91
2021/03/07 10:27:54;;;;;;;10.23;9.13;;;6.20;48.50;;;;;;4986639;28;20182;-91
2021/03/07 10:30:43;;;;;;;9.37;8.47;;;6.40;47.50;;;;;;4999407;28;20211;-91
2021/03/07 10:33:28;;;;;;;12.43;9.27;;;6.70;46.80;;;;;;4986870;28;20187;-92
2021/03/07 10:36:13;;;;;;;9.20;8.40;;;6.80;47.00;;;;;;4986629;28;20619;-91
2021/03/07 10:38:43;;;;;;;10.30;9.30;;;7.00;46.60;;;;;;4986120;28;20175;-91
2021/03/07 10:41:24;;;;;;;10.37;9.43;;;7.20;45.70;;;;;;4986525;28;20190;-91
2021/03/07 10:43:57;;;;;;;9.30;8.40;;;7.30;45.20;;;;;;4983640;28;20267;-92
2021/03/07 10:46:38;;;;;;;9.27;8.40;;;7.30;45.70;;;;;;4985004;28;20167;-91
2021/03/07 10:49:06;;;;;;;10.40;9.27;;;7.40;44.80;;;;;;4984305;28;20199;-91
2021/03/07 10:51:33;;;;;;;10.13;9.10;;;7.50;46.20;;;;;;4984287;28;20271;-91
2021/03/07 10:53:59;;;;;;;10.43;9.37;;;7.80;44.00;;;;;;4984113;28;20221;-91
2021/03/07 10:56:40;;;;;;;10.47;8.77;;;7.90;44.40;;;;;;4986529;28;20179;-91
2021/03/07 10:59:06;;;;;;;10.10;9.20;;;8.00;43.30;;;;;;4984888;28;20195;-91
2021/03/07 11:01:32;;;;;;;10.47;9.47;;;8.30;43.10;;;;;;4989518;28;20202;-92
2021/03/07 11:03:58;;;;;;;10.80;9.80;;;8.40;43.10;;;;;;4983194;28;20290;-91
2021/03/07 11:06:24;;;;;;;10.20;9.27;;;8.50;43.10;;;;;;4983109;28;20613;-92
2021/03/07 11:08:51;;;;;;;10.10;9.20;;;8.60;41.70;;;;;;4984765;28;20259;-92
2021/03/07 11:11:17;;;;;;;10.03;9.03;;;9.00;40.90;;;;;;4986603;28;20263;-92
2021/03/07 11:13:43;;;;;;;10.13;9.17;;;9.00;40.40;;;;;;5001645;28;20182;-92
2021/03/07 11:16:09;;;;;;;11.37;9.90;;;9.20;40.40;;;;;;4984529;28;20682;-92
2021/03/07 11:18:35;;;;;;;10.47;9.47;;;9.30;39.80;;;;;;4998883;28;20190;-93
2021/03/07 11:21:02;;;;;;;10.10;9.20;;;9.20;40.70;;;;;;4983607;28;20258;-91
2021/03/07 11:23:28;;;;;;;10.77;9.73;;;9.50;40.80;;;;;;4983644;28;20673;-92
2021/03/07 11:25:54;;;;;;;11.10;10.00;;;9.90;39.60;;;;;;4983414;28;20277;-92
2021/03/07 11:28:20;;;;;;;9.70;8.70;;;9.70;39.30;;;;;;4985789;28;20210;-91
2021/03/07 11:30:45;;;;;;;10.97;10.07;;;10.00;38.40;;;;;;4984668;28;20214;-91
2021/03/07 11:33:11;;;;;;;12.60;11.40;;;10.20;39.90;;;;;;4984760;28;20195;-92
2021/03/07 11:35:37;;;;;;;10.30;9.37;;;10.40;38.90;;;;;;4986591;28;20310;-92
2021/03/07 11:38:03;;;;;;;10.53;9.47;;;10.70;37.50;;;;;;4985063;28;20230;-92
2021/03/07 11:40:29;;;;;;;10.90;9.30;;;10.50;37.50;;;;;;4986279;28;20207;-92
2021/03/07 11:42:56;;;;;;;10.73;9.63;;;10.70;37.60;;;;;;4984125;28;20195;-92
2021/03/07 11:45:22;;;;;;;11.57;10.37;;;10.60;38.30;;;;;;4985940;28;20191;-92
2021/03/07 11:47:48;;;;;;;10.90;9.80;;;10.80;37.40;;;;;;4985067;28;20222;-92
2021/03/07 11:50:14;;;;;;;11.83;10.70;;;10.60;37.70;;;;;;4984626;28;20214;-92
2021/03/07 11:52:40;;;;;;;9.93;8.93;;;10.90;37.70;;;;;;5000812;28;20286;-92
2021/03/07 11:55:06;;;;;;;11.20;10.17;;;10.90;37.30;;;;;;4985297;28;20222;-92
2021/03/07 11:57:34;;;;;;;14.10;12.70;;;11.10;36.30;;;;;;4984093;28;20745;-92
2021/03/07 12:00:03;;;;;;;11.27;10.17;;;11.30;36.00;;;;;;4986284;28;20281;-92
2021/03/07 12:02:29;;;;;;;40.83;36.67;;;11.50;35.20;;;;;;4986998;28;20194;-93
2021/03/07 12:04:55;;;;;;;11.57;10.53;;;11.70;35.80;;;;;;4987037;28;20199;-92
2021/03/07 12:07:21;;;;;;;10.07;9.27;;;11.80;35.20;;;;;;5001780;28;20188;-91
2021/03/07 12:09:47;;;;;;;10.93;9.90;;;12.00;35.60;;;;;;4986710;28;20209;-92
2021/03/07 12:12:12;;;;;;;11.03;10.00;;;11.80;34.10;;;;;;4985556;28;20666;-90
2021/03/07 12:14:38;;;;;;;11.77;10.30;;;11.60;35.00;;;;;;5000559;28;20222;-90
2021/03/07 12:17:04;;;;;;;10.90;9.87;;;11.30;35.40;;;;;;4985211;28;20587;-91
2021/03/07 12:19:30;;;;;;;11.37;10.17;;;11.60;36.10;;;;;;4983606;28;20190;-91
2021/03/07 12:21:56;;;;;;;10.23;9.33;;;11.90;35.00;;;;;;5000929;28;20186;-90
2021/03/07 12:24:22;;;;;;;10.43;9.53;;;12.50;33.50;;;;;;4987073;28;20195;-89
2021/03/07 12:26:47;;;;;;;10.73;9.73;;;12.10;34.10;;;;;;4987031;28;20205;-91
2021/03/07 12:29:13;;;;;;;10.40;9.50;;;12.40;34.30;;;;;;4999200;28;20246;-90
2021/03/07 12:31:39;;;;;;;10.43;9.53;;;11.70;34.60;;;;;;4985122;28;20216;-90
2021/03/07 12:34:05;;;;;;;11.80;10.80;;;11.80;34.30;;;;;;4984899;28;20231;-90
2021/03/07 12:36:30;;;;;;;11.00;10.00;;;11.80;34.50;;;;;;4984622;28;20634;-90
2021/03/07 12:38:56;;;;;;;12.40;11.17;;;12.30;34.30;;;;;;4982921;28;20209;-90
2021/03/07 12:41:22;;;;;;;11.77;10.67;;;13.00;32.90;;;;;;4968284;28;20216;-91
2021/03/07 12:43:48;;;;;;;12.00;10.80;;;13.20;32.00;;;;;;4983777;28;20183;-90
2021/03/07 12:46:14;;;;;;;11.93;10.77;;;13.30;32.80;;;;;;4985152;28;20665;-91
2021/03/07 12:48:39;;;;;;;11.70;10.60;;;13.50;32.40;;;;;;4983588;28;20601;-91
2021/03/07 12:51:05;;;;;;;11.53;10.47;;;13.60;31.80;;;;;;4985432;28;20206;-90
2021/03/07 12:53:31;;;;;;;11.50;10.50;;;14.00;31.60;;;;;;5000098;28;20193;-90
2021/03/07 12:55:58;;;;;;;11.93;10.93;;;13.70;31.60;;;;;;4984170;28;20214;-90
2021/03/07 12:58:24;;;;;;;10.90;10.00;;;14.10;30.70;;;;;;4984560;28;20179;-90
2021/03/07 13:00:50;;;;;;;11.60;10.60;;;14.20;30.90;;;;;;4983408;28;20232;-91
2021/03/07 13:03:16;;;;;;;11.67;10.57;;;14.30;31.30;;;;;;4983100;28;20187;-90